Aérodrome :
LOGIN :

S'inscrire | Disclaimer

   EN    FR    IT 

 










Légende :    VFR   VFR Marginal   IFR   IFR Intensif   IFR Très Intensif
Visi : 
Plafond : 
>= 8 km
>= 3000ft
5 à 8 km
1000 à 3000 ft
1500m à 5 km
500 à 1000 ft
800 à 1500m
200 à 500 ft
< 800m
< 200 ft
Symboles :   Orages  Brouillard  Fortes neiges  Fortes précipitations  Vent > 20 kt
SIGMETs :   Divers  Orages  Givrage  Turbulence  Onde Orograph.  Cendres Volcan.







- Altitude de l'aérodrome : 392 ft
- Code IATA : CDG
- Voir les cartes d'approche


LFPG - Paris-Aeroport Charles De Gaulle

DERNIER METAR :
  • 172300Z 02007KT CAVOK 18/09 Q1019 NOSIG

METARs EXPIRÉS :
  • 172230Z 03006KT CAVOK 18/09 Q1019 NOSIG
  • 172200Z 02006KT CAVOK 18/09 Q1019 NOSIG
  • 172130Z 02007KT CAVOK 19/10 Q1018 NOSIG
  • 172100Z 02007KT CAVOK 20/10 Q1018 NOSIG
  • 172030Z 35005KT CAVOK 21/10 Q1018 NOSIG

TAF TAF LFPG
Valide du 17 à 18h jusqu'au 19 à 00h UTC


171700Z 1718/1824 35006KT CAVOK TX28/1815Z TN15/1804Z
BECMG 1721/1724 02005KT
ATIS : +33 1 48 62 10 92
Pas de NOTAMs connus pour ce terrain.



MET'MAP, la Météo Aéronautique d'un coup d'oeil ! - Copyright ORBIFLY Décembre 2007 - Disclaimer

ORBIFLY MET'MAP TEAM :

Programmation & Développement : Alexandra Zaïnal
Conception & Développement : Baudouin d'Aumeries
Co-Programmation & Développement : Marc-Olivier Méhu
Soutien technique & logistique : Manuel Goepfert

Contact : metmap@orbifly.com




SOURCES & CREDITS :

   NOAA